WetterOnline ( https://www.wetteronline.at )

Wetter aktuell Freising

Aktuelles Wetter: Weihenstephan-Dürnast (478m)

6-stündlich | Neueste Meldungen
Ortszeit Temperatur Wetter
Di, 17.09. 14:00 17.4° C bewölkt
Di, 17.09. 8:00 13.6° C leichter Regen
Di, 17.09. 2:00 15.8° C wolkig
Mo, 16.09. 20:00 20.7° C bewölkt
Mo, 16.09. 14:00 24.2° C wolkig
Mo, 16.09. 8:00 12.2° C wolkenlos
Mo, 16.09. 2:00 13.3° C wolkenlos
So, 15.09. 20:00 17.0° C wolkenlos
Ortszeit Temperatur Wetter
Di, 17.09. 16:00 17.6° C bedeckt
Di, 17.09. 15:50 17.6° C bedeckt
Di, 17.09. 15:40 17.8° C bedeckt
Di, 17.09. 15:30 17.3° C bedeckt
Di, 17.09. 15:20 17.3° C bedeckt
Di, 17.09. 15:10 17.6° C bedeckt
Di, 17.09. 15:00 17.1° C bedeckt
Di, 17.09. 14:30 17.0° C bewölkt
Di, 17.09. 14:00 17.4° C bewölkt
Di, 17.09. 13:30 16.5° C bedeckt
Di, 17.09. 13:00 17.2° C bedeckt
Ortszeit Relative Feuchte Sichtweite
Di, 17.09. 14:00 75% 14 km
Di, 17.09. 8:00 93% 12 km
Di, 17.09. 2:00 75% 30 km
Mo, 16.09. 20:00 73% 23 km
Mo, 16.09. 14:00 58% 20 km
Mo, 16.09. 8:00 96% 7 km
Mo, 16.09. 2:00 97% 6 km
So, 15.09. 20:00 87% 19 km
Ortszeit Relative Feuchte Sichtweite
Di, 17.09. 16:00 73% 25 km
Di, 17.09. 15:50 73% -
Di, 17.09. 15:40 71% -
Di, 17.09. 15:30 72% 30 km
Di, 17.09. 15:20 72% -
Di, 17.09. 15:10 74% -
Di, 17.09. 15:00 74% 21 km
Di, 17.09. 14:30 75% 17 km
Di, 17.09. 14:00 75% 14 km
Di, 17.09. 13:30 78% 15 km
Di, 17.09. 13:00 74% 15 km
Ortszeit Niederschlagsmenge Niederschlagsart
Di, 17.09. 14:00 0.1 l/m2 in 6 Std. Regen
Di, 17.09. 8:00 0.1 l/m2 in 12 Std. Regen
Di, 17.09. 2:00 0.0 l/m2 in 6 Std. -
Mo, 16.09. 20:00 0.0 l/m2 in 12 Std. -
Mo, 16.09. 14:00 0.0 l/m2 in 6 Std. -
Mo, 16.09. 8:00 0.0 l/m2 in 12 Std. -
Mo, 16.09. 2:00 0.0 l/m2 in 6 Std. -
So, 15.09. 20:00 0.0 l/m2 in 12 Std. -
Ortszeit Niederschlagsmenge Niederschlagsart
Di, 17.09. 16:00 0.0 l/m2 in 1 Std. -
Di, 17.09. 15:50 keine Meldung -
Di, 17.09. 15:40 keine Meldung -
Di, 17.09. 15:30 0.0 l/m2 in 1 Std. -
Di, 17.09. 15:20 keine Meldung -
Di, 17.09. 15:10 keine Meldung -
Di, 17.09. 15:00 0.0 l/m2 in 1 Std. -
Di, 17.09. 14:30 0.0 l/m2 in 1 Std. -
Di, 17.09. 14:00 0.0 l/m2 in 1 Std. Regen
Di, 17.09. 13:30 0.0 l/m2 in 1 Std. -
Di, 17.09. 13:00 0.1 l/m2 in 1 Std. Sprühregen
Ortszeit Stärke Spitze Richtung
km/h Bft. km/h Grad Sektor
Di, 17.09. 14:00 14 3 29 280° W
Di, 17.09. 8:00 2 1 9 10° N
Di, 17.09. 2:00 7 2 14 300° NW
Mo, 16.09. 20:00 6 1 22 280° W
Mo, 16.09. 14:00 13 3 19 230° SW
Mo, 16.09. 8:00 0 0 7 - -
Mo, 16.09. 2:00 4 1 7 260° W
So, 15.09. 20:00 2 1 24 280° W
Ortszeit Stärke Spitze Richtung
km/h Bft. km/h Grad Sektor
Di, 17.09. 16:00 15 3 31 300° NW
Di, 17.09. 15:50 15 3 - 300° NW
Di, 17.09. 15:40 19 3 - 280° W
Di, 17.09. 15:30 17 3 26 290° W
Di, 17.09. 15:20 17 3 - 290° W
Di, 17.09. 15:10 14 3 - 280° W
Di, 17.09. 15:00 17 3 28 280° W
Di, 17.09. 14:30 18 3 29 290° W
Di, 17.09. 14:00 14 3 29 280° W
Di, 17.09. 13:30 14 3 29 310° NW
Di, 17.09. 13:00 19 3 28 300° NW
Ortszeit Untergrenze Bedeckung Gattung
total tief tief mittel hoch
Di, 17.09. 14:00 480 m 7/8 7/8 - - -
Di, 17.09. 8:00 2100 m 8/8 7/8 - - -
Di, 17.09. 2:00 2100 m 8/8 1/8 - - -
Mo, 16.09. 20:00 1500 m 8/8 4/8 - - -
Mo, 16.09. 14:00 1050 m 7/8 2/8 - - -
Mo, 16.09. 8:00 - 0/8 0/8 - - -
Mo, 16.09. 2:00 10500 m 0/8 0/8 - - -
So, 15.09. 20:00 - 0/8 0/8 - - -
Ortszeit Bedeckungsgrad in Achtel und Wolkenuntergrenze
Di, 17.09. 16:00 2(1200m) 3(1440m) 8(1500m)
Di, 17.09. 15:50 2(1200m) 3(1440m) 8(1500m)
Di, 17.09. 15:40 1(840m) 4(1140m) 8(1500m)
Di, 17.09. 15:30 2(720m) 7(1080m) 8(1500m)
Di, 17.09. 15:20 2(720m) 7(1080m) 8(1500m)
Di, 17.09. 15:10 4(720m) 7(1050m) 8(1500m)
Di, 17.09. 15:00 1(600m) 8(1200m) 8(1500m)
Di, 17.09. 14:30 3(480m) 7(1080m) 7(1500m)
Di, 17.09. 14:00 4(480m) 7(840m) 7(1110m)
Di, 17.09. 13:30 2(450m) 7(1140m) 8(1500m)
Di, 17.09. 13:00 4(540m) 7(1260m) 8(1800m)
Ortszeit Luftdruck NN (hPa) Tendenz (hPa in 3 Std.)
Di, 17.09. 14:00 1018 - 0,3
Di, 17.09. 8:00 1018 + 0,3
Di, 17.09. 2:00 1018 - 0,7
Mo, 16.09. 20:00 1016 - 0,1
Mo, 16.09. 14:00 1017 - 1,5
Mo, 16.09. 8:00 1021 - 0,7
Mo, 16.09. 2:00 1022 - 0,1
So, 15.09. 20:00 1021 - 0,7
Ortszeit Luftdruck NN (hPa) Tendenz (hPa in 3 Std.)
Di, 17.09. 16:00 1017 - 0,8
Di, 17.09. 15:50 1017 keine Meldung
Di, 17.09. 15:40 1017 keine Meldung
Di, 17.09. 15:30 1018 - 0,7
Di, 17.09. 15:20 1018 keine Meldung
Di, 17.09. 15:10 1018 keine Meldung
Di, 17.09. 15:00 1018 - 0,6
Di, 17.09. 14:30 1018 - 0,6
Di, 17.09. 14:00 1018 - 0,3
Di, 17.09. 13:30 1018 + 0,2
Di, 17.09. 13:00 1018 + 0,3
Ortszeit Schneehöhe (cm)
Di, 17.09. 14:00 -
Di, 17.09. 8:00 -
Di, 17.09. 2:00 -
Mo, 16.09. 20:00 -
Mo, 16.09. 14:00 -
Mo, 16.09. 8:00 -
Mo, 16.09. 2:00 -
So, 15.09. 20:00 -
Ortszeit Schneehöhe (cm)
Di, 17.09. 16:00 -
Di, 17.09. 15:50 -
Di, 17.09. 15:40 -
Di, 17.09. 15:30 -
Di, 17.09. 15:20 -
Di, 17.09. 15:10 -
Di, 17.09. 15:00 -
Di, 17.09. 14:30 -
Di, 17.09. 14:00 -
Di, 17.09. 13:30 -
Di, 17.09. 13:00 -
Link zu dieser Seite / Seite empfehlen

Das Wetter in ...